Terminal Aerodrome Forecast
Issued by NWS Hastings, NE

Home | Current Version | Previous Version | Text Only | Print | Product List | Glossary On
Versions: 1 2 3 4 5 6 7 8 9 10 11 12 13
481
FTUS45 KGID 040539
TAFEAR
TAF
KEAR 040539Z 0406/0506 21007KT 3SM BR OVC004
     FM040800 25007KT 1SM BR OVC003
     FM041200 27008KT 3SM BR BKN005
     FM041400 28012KT P6SM SCT250
     FM042300 22007KT P6SM SCT250
      AMD LTD TO CLD VIS AND WIND=

USA.gov is the U.S. government's official web portal to all federal, state and local government web resources and services.